NKS56S BIKF-KBOS
Flight info
| Callsign | NKS56S |
|---|---|
| Flight time | N/A |
| Altitude | 36000 |
| Route | DELES2A DELES DCT DOPOD DCT 61N030W 56N040W 52N050W DCT UMESI/N0437F360 DCT ALLEX DCT AJJAY OOSHN5 |
| Aircraft | A20N/M-SDE2E3FGHIRWXY/LB1 |
Departure
| Time | 2026-05-06 06:42 |
|---|---|
| Airport | Keflavik International Airport (BIKF) |
Arrival
| Time | N/A |
|---|---|
| Airport | Boston Logan International Airport (KBOS) |
| Time | Latitude | Longitude | Altitude | Speed | Heading |
|---|---|---|---|---|---|
| 2026-05-06 06:31 | 63.98768 | -22.61339 | 161 ft | 0 kts | 179° |
| 2026-05-06 06:35 | 63.98771 | -22.61339 | 161 ft | 4 kts | 179° |
| 2026-05-06 06:35 | 63.98808 | -22.61340 | 162 ft | 5 kts | 179° |
| 2026-05-06 06:35 | 63.98843 | -22.61354 | 162 ft | 5 kts | 142° |
| 2026-05-06 06:35 | 63.98856 | -22.61402 | 162 ft | 0 kts | 90° |
| 2026-05-06 06:37 | 63.98856 | -22.61374 | 162 ft | 6 kts | 90° |
| 2026-05-06 06:38 | 63.98856 | -22.61190 | 164 ft | 16 kts | 90° |
| 2026-05-06 06:38 | 63.98842 | -22.60961 | 166 ft | 13 kts | 156° |
| 2026-05-06 06:38 | 63.98724 | -22.60942 | 164 ft | 22 kts | 179° |
| 2026-05-06 06:38 | 63.98542 | -22.60932 | 161 ft | 30 kts | 178° |
| 2026-05-06 06:39 | 63.98313 | -22.60937 | 161 ft | 36 kts | 181° |
| 2026-05-06 06:39 | 63.98059 | -22.60941 | 160 ft | 37 kts | 178° |
| 2026-05-06 06:39 | 63.97797 | -22.60937 | 157 ft | 38 kts | 180° |
| 2026-05-06 06:39 | 63.97530 | -22.60941 | 155 ft | 39 kts | 181° |
| 2026-05-06 06:40 | 63.97257 | -22.60949 | 152 ft | 40 kts | 180° |
| 2026-05-06 06:40 | 63.96979 | -22.60949 | 149 ft | 40 kts | 181° |
| 2026-05-06 06:40 | 63.96698 | -22.60945 | 147 ft | 41 kts | 180° |
| 2026-05-06 06:40 | 63.96460 | -22.60852 | 144 ft | 21 kts | 110° |
| 2026-05-06 06:41 | 63.96465 | -22.60620 | 143 ft | 15 kts | 85° |
| 2026-05-06 06:41 | 63.96586 | -22.60545 | 145 ft | 41 kts | 0° |
| 2026-05-06 06:41 | 63.97110 | -22.60544 | 150 ft | 107 kts | 359° |
| 2026-05-06 06:41 | 63.98030 | -22.60544 | 225 ft | 151 kts | 2° |
| 2026-05-06 06:42 | 63.99087 | -22.60561 | 983 ft | 149 kts | 4° |
| 2026-05-06 06:42 | 64.00123 | -22.60567 | 1861 ft | 150 kts | 6° |
| 2026-05-06 06:42 | 64.01218 | -22.60558 | 2329 ft | 167 kts | 7° |
| 2026-05-06 06:42 | 64.02443 | -22.60538 | 2715 ft | 186 kts | 7° |
| 2026-05-06 06:43 | 64.03818 | -22.60626 | 3032 ft | 213 kts | 355° |
| 2026-05-06 06:43 | 64.05257 | -22.62131 | 3417 ft | 246 kts | 324° |
| 2026-05-06 06:43 | 64.06307 | -22.65457 | 3899 ft | 272 kts | 293° |
| 2026-05-06 06:43 | 64.06612 | -22.69769 | 4709 ft | 279 kts | 273° |
| 2026-05-06 06:44 | 64.06558 | -22.74207 | 5600 ft | 281 kts | 269° |
| 2026-05-06 06:44 | 64.06438 | -22.78681 | 6435 ft | 283 kts | 269° |
| 2026-05-06 06:44 | 64.06344 | -22.83202 | 7219 ft | 286 kts | 270° |
| 2026-05-06 06:44 | 64.06293 | -22.87695 | 7993 ft | 288 kts | 271° |
| 2026-05-06 06:45 | 64.06268 | -22.92282 | 8780 ft | 290 kts | 272° |
| 2026-05-06 06:45 | 64.06255 | -22.96926 | 9538 ft | 293 kts | 272° |
| 2026-05-06 06:45 | 64.06244 | -23.01601 | 10326 ft | 296 kts | 272° |
| 2026-05-06 06:45 | 64.06235 | -23.06406 | 10745 ft | 312 kts | 272° |
| 2026-05-06 06:46 | 64.06057 | -23.11496 | 10973 ft | 334 kts | 258° |
| 2026-05-06 06:46 | 64.05137 | -23.16502 | 11291 ft | 351 kts | 236° |
| 2026-05-06 06:46 | 64.03573 | -23.20810 | 11947 ft | 355 kts | 228° |
| 2026-05-06 06:46 | 64.01928 | -23.25047 | 12629 ft | 358 kts | 228° |
| 2026-05-06 06:47 | 64.00273 | -23.29333 | 13299 ft | 363 kts | 229° |
| 2026-05-06 06:47 | 63.98595 | -23.33682 | 13961 ft | 367 kts | 229° |
| 2026-05-06 06:47 | 63.96908 | -23.38056 | 14580 ft | 370 kts | 229° |
| 2026-05-06 06:47 | 63.95192 | -23.42501 | 15080 ft | 376 kts | 228° |
| 2026-05-06 06:48 | 63.93457 | -23.46986 | 15701 ft | 378 kts | 228° |
| 2026-05-06 06:48 | 63.91707 | -23.51500 | 16235 ft | 383 kts | 228° |
| 2026-05-06 06:48 | 63.89935 | -23.56058 | 16823 ft | 387 kts | 228° |
| 2026-05-06 06:48 | 63.88141 | -23.60662 | 17376 ft | 390 kts | 228° |
| 2026-05-06 06:49 | 63.86334 | -23.65292 | 17900 ft | 395 kts | 228° |
| 2026-05-06 06:49 | 63.84523 | -23.69923 | 18482 ft | 398 kts | 228° |
| 2026-05-06 06:49 | 63.82673 | -23.74642 | 18947 ft | 402 kts | 228° |
| 2026-05-06 06:49 | 63.80814 | -23.79371 | 19453 ft | 404 kts | 228° |
| 2026-05-06 06:50 | 63.78931 | -23.84153 | 19921 ft | 407 kts | 228° |
| 2026-05-06 06:50 | 63.77033 | -23.88961 | 20398 ft | 411 kts | 228° |
| 2026-05-06 06:50 | 63.75126 | -23.93783 | 20884 ft | 413 kts | 228° |
| 2026-05-06 06:50 | 63.73199 | -23.98641 | 21353 ft | 416 kts | 228° |
| 2026-05-06 06:51 | 63.71262 | -24.03516 | 21816 ft | 419 kts | 228° |
| 2026-05-06 06:51 | 63.69304 | -24.08431 | 22300 ft | 422 kts | 228° |
| 2026-05-06 06:51 | 63.67357 | -24.13308 | 22742 ft | 425 kts | 228° |
| 2026-05-06 06:51 | 63.65368 | -24.18280 | 23190 ft | 428 kts | 228° |
| 2026-05-06 06:52 | 63.63367 | -24.23269 | 23652 ft | 431 kts | 228° |
| 2026-05-06 06:52 | 63.61352 | -24.28282 | 24054 ft | 433 kts | 228° |
| 2026-05-06 06:52 | 63.59324 | -24.33313 | 24439 ft | 435 kts | 228° |
| 2026-05-06 06:52 | 63.57286 | -24.38358 | 24813 ft | 437 kts | 229° |
| 2026-05-06 06:53 | 63.55237 | -24.43420 | 25168 ft | 439 kts | 229° |
| 2026-05-06 06:53 | 63.53176 | -24.48500 | 25543 ft | 441 kts | 229° |
| 2026-05-06 06:53 | 63.51103 | -24.53598 | 25895 ft | 443 kts | 229° |
| 2026-05-06 06:53 | 63.49069 | -24.58791 | 26236 ft | 444 kts | 234° |
| 2026-05-06 06:54 | 63.47243 | -24.64372 | 26622 ft | 444 kts | 237° |
| 2026-05-06 06:54 | 63.45441 | -24.69982 | 26978 ft | 445 kts | 237° |
| 2026-05-06 06:54 | 63.43656 | -24.75535 | 27332 ft | 446 kts | 237° |
| 2026-05-06 06:54 | 63.41833 | -24.81177 | 27661 ft | 448 kts | 237° |
| 2026-05-06 06:55 | 63.40007 | -24.86801 | 28014 ft | 449 kts | 237° |
| 2026-05-06 06:55 | 63.38164 | -24.92454 | 28358 ft | 450 kts | 237° |
| 2026-05-06 06:55 | 63.36314 | -24.98106 | 28672 ft | 451 kts | 237° |
| 2026-05-06 06:55 | 63.34463 | -25.03747 | 28969 ft | 452 kts | 237° |
| 2026-05-06 06:56 | 63.32600 | -25.09411 | 29273 ft | 453 kts | 237° |
| 2026-05-06 06:56 | 63.30732 | -25.15074 | 29566 ft | 454 kts | 237° |
| 2026-05-06 06:56 | 63.28855 | -25.20757 | 29847 ft | 456 kts | 237° |
| 2026-05-06 06:56 | 63.26972 | -25.26438 | 30118 ft | 457 kts | 237° |
| 2026-05-06 06:57 | 63.25083 | -25.32124 | 30380 ft | 458 kts | 238° |
| 2026-05-06 06:57 | 63.23179 | -25.37843 | 30580 ft | 460 kts | 237° |
| 2026-05-06 06:57 | 63.21271 | -25.43558 | 30786 ft | 462 kts | 237° |
| 2026-05-06 06:57 | 63.19378 | -25.49212 | 30988 ft | 463 kts | 237° |
| 2026-05-06 06:58 | 63.17452 | -25.54955 | 31203 ft | 465 kts | 237° |
| 2026-05-06 06:58 | 63.15523 | -25.60687 | 31439 ft | 465 kts | 237° |
| 2026-05-06 06:58 | 63.13583 | -25.66437 | 31716 ft | 465 kts | 237° |
| 2026-05-06 06:58 | 63.11649 | -25.72156 | 31976 ft | 465 kts | 237° |
| 2026-05-06 06:59 | 63.09710 | -25.77872 | 32233 ft | 464 kts | 237° |
| 2026-05-06 06:59 | 63.07772 | -25.83577 | 32492 ft | 464 kts | 237° |
| 2026-05-06 06:59 | 63.05832 | -25.89271 | 32746 ft | 464 kts | 237° |
| 2026-05-06 06:59 | 63.03889 | -25.94963 | 32987 ft | 464 kts | 237° |
| 2026-05-06 07:00 | 63.01950 | -26.00629 | 33225 ft | 463 kts | 237° |
| 2026-05-06 07:00 | 63.00009 | -26.06285 | 33457 ft | 463 kts | 237° |
| 2026-05-06 07:00 | 62.98064 | -26.11939 | 33666 ft | 463 kts | 237° |
| 2026-05-06 07:00 | 62.96117 | -26.17585 | 33887 ft | 463 kts | 237° |
| 2026-05-06 07:01 | 62.94162 | -26.23240 | 34094 ft | 463 kts | 237° |
| 2026-05-06 07:01 | 62.92239 | -26.28788 | 34280 ft | 463 kts | 237° |
| 2026-05-06 07:01 | 62.90259 | -26.34352 | 34446 ft | 464 kts | 234° |
| 2026-05-06 07:01 | 62.88064 | -26.39574 | 34607 ft | 467 kts | 228° |
| 2026-05-06 07:02 | 62.85697 | -26.44479 | 34770 ft | 468 kts | 227° |
| 2026-05-06 07:02 | 62.83335 | -26.49366 | 34919 ft | 467 kts | 228° |
| 2026-05-06 07:02 | 62.80973 | -26.54265 | 35068 ft | 467 kts | 228° |
| 2026-05-06 07:02 | 62.78620 | -26.59153 | 35213 ft | 467 kts | 228° |
| 2026-05-06 07:03 | 62.76285 | -26.63996 | 35360 ft | 466 kts | 228° |
| 2026-05-06 07:03 | 62.73924 | -26.68878 | 35502 ft | 466 kts | 228° |
| 2026-05-06 07:03 | 62.71569 | -26.73734 | 35627 ft | 466 kts | 228° |
| 2026-05-06 07:03 | 62.69207 | -26.78591 | 35777 ft | 466 kts | 227° |
| 2026-05-06 07:04 | 62.66839 | -26.83450 | 35888 ft | 466 kts | 227° |
| 2026-05-06 07:04 | 62.64481 | -26.88275 | 36023 ft | 465 kts | 227° |
| 2026-05-06 07:04 | 62.62154 | -26.93026 | 36146 ft | 465 kts | 227° |
| 2026-05-06 07:05 | 62.57430 | -27.02640 | 36241 ft | 464 kts | 227° |
| 2026-05-06 07:05 | 62.52711 | -27.12198 | 36241 ft | 464 kts | 228° |
| 2026-05-06 07:06 | 62.47952 | -27.21799 | 36246 ft | 469 kts | 227° |
| 2026-05-06 07:06 | 62.43164 | -27.31411 | 36245 ft | 475 kts | 227° |
| 2026-05-06 07:07 | 62.38287 | -27.41155 | 36249 ft | 479 kts | 227° |
| 2026-05-06 07:07 | 62.33377 | -27.50917 | 36237 ft | 481 kts | 227° |
| 2026-05-06 07:08 | 62.28459 | -27.60646 | 36250 ft | 480 kts | 227° |
| 2026-05-06 07:08 | 62.23538 | -27.70341 | 36246 ft | 480 kts | 227° |
| 2026-05-06 07:09 | 62.18615 | -27.79995 | 36248 ft | 480 kts | 227° |
| 2026-05-06 07:09 | 62.13718 | -27.89556 | 36247 ft | 479 kts | 227° |
| 2026-05-06 07:10 | 62.08783 | -27.99145 | 36246 ft | 479 kts | 227° |
| 2026-05-06 07:10 | 62.03845 | -28.08696 | 36248 ft | 479 kts | 227° |
| 2026-05-06 07:11 | 61.98910 | -28.18198 | 36250 ft | 478 kts | 227° |
| 2026-05-06 07:11 | 61.93961 | -28.27685 | 36249 ft | 478 kts | 227° |
| 2026-05-06 07:12 | 61.89049 | -28.37056 | 36250 ft | 477 kts | 227° |
| 2026-05-06 07:12 | 61.84105 | -28.46445 | 36247 ft | 477 kts | 227° |
| 2026-05-06 07:13 | 61.79155 | -28.55806 | 36254 ft | 477 kts | 227° |
| 2026-05-06 07:13 | 61.74204 | -28.65124 | 36251 ft | 476 kts | 227° |
| 2026-05-06 07:14 | 61.69252 | -28.74405 | 36251 ft | 476 kts | 227° |
| 2026-05-06 07:14 | 61.64295 | -28.83652 | 36240 ft | 475 kts | 227° |
| 2026-05-06 07:15 | 61.59375 | -28.92790 | 36254 ft | 475 kts | 227° |
| 2026-05-06 07:15 | 61.54423 | -29.01948 | 36253 ft | 474 kts | 227° |
| 2026-05-06 07:16 | 61.49465 | -29.11074 | 36253 ft | 474 kts | 227° |
| 2026-05-06 07:16 | 61.44505 | -29.20165 | 36258 ft | 473 kts | 227° |
| 2026-05-06 07:17 | 61.39554 | -29.29200 | 36257 ft | 472 kts | 227° |
| 2026-05-06 07:17 | 61.34604 | -29.38193 | 36260 ft | 472 kts | 227° |
| 2026-05-06 07:18 | 61.29651 | -29.47154 | 36261 ft | 471 kts | 227° |
| 2026-05-06 07:18 | 61.24727 | -29.56022 | 36260 ft | 470 kts | 227° |
| 2026-05-06 07:19 | 61.19778 | -29.64898 | 36264 ft | 469 kts | 227° |
| 2026-05-06 07:19 | 61.14834 | -29.73725 | 36261 ft | 469 kts | 227° |
| 2026-05-06 07:20 | 61.09894 | -29.82509 | 36263 ft | 468 kts | 227° |
| 2026-05-06 07:20 | 61.05785 | -29.89790 | 36264 ft | 467 kts | 227° |
| 2026-05-06 07:21 | 61.00085 | -30.00009 | 36265 ft | 463 kts | 232° |
| 2026-05-06 07:21 | 60.96615 | -30.08264 | 36267 ft | 457 kts | 237° |
| 2026-05-06 07:22 | 60.92577 | -30.18390 | 36272 ft | 456 kts | 237° |
| 2026-05-06 07:22 | 60.88545 | -30.28467 | 36275 ft | 456 kts | 237° |
| 2026-05-06 07:23 | 60.84503 | -30.38512 | 36273 ft | 455 kts | 237° |
| 2026-05-06 07:23 | 60.80480 | -30.48459 | 36273 ft | 455 kts | 237° |
| 2026-05-06 07:24 | 60.76430 | -30.58430 | 36273 ft | 455 kts | 236° |
| 2026-05-06 07:24 | 60.72369 | -30.68376 | 36276 ft | 455 kts | 236° |
| 2026-05-06 07:25 | 60.68302 | -30.78277 | 36275 ft | 455 kts | 236° |
| 2026-05-06 07:25 | 60.64248 | -30.88096 | 36275 ft | 454 kts | 236° |
| 2026-05-06 07:26 | 60.60167 | -30.97941 | 36273 ft | 454 kts | 236° |
| 2026-05-06 07:26 | 60.56084 | -31.07747 | 36292 ft | 454 kts | 236° |
| 2026-05-06 07:27 | 60.51990 | -31.17540 | 36288 ft | 454 kts | 236° |
| 2026-05-06 07:27 | 60.47917 | -31.27238 | 36284 ft | 454 kts | 235° |
| 2026-05-06 07:28 | 60.43804 | -31.36994 | 36284 ft | 454 kts | 235° |
| 2026-05-06 07:28 | 60.37635 | -31.51547 | 36287 ft | 454 kts | 235° |
| 2026-05-06 07:29 | 60.33532 | -31.61175 | 36285 ft | 454 kts | 235° |
| 2026-05-06 07:29 | 60.29400 | -31.70830 | 36294 ft | 454 kts | 234° |
| 2026-05-06 07:30 | 60.25263 | -31.80454 | 36288 ft | 454 kts | 234° |
| 2026-05-06 07:30 | 60.21110 | -31.90079 | 36288 ft | 454 kts | 234° |
| 2026-05-06 07:31 | 60.16958 | -31.99659 | 36291 ft | 455 kts | 234° |
| 2026-05-06 07:31 | 60.12790 | -32.09236 | 36287 ft | 455 kts | 234° |
| 2026-05-06 07:32 | 60.08650 | -32.18707 | 36289 ft | 454 kts | 234° |
| 2026-05-06 07:32 | 60.04472 | -32.28229 | 36293 ft | 455 kts | 233° |
| 2026-05-06 07:33 | 60.00287 | -32.37725 | 36287 ft | 454 kts | 233° |
| 2026-05-06 07:33 | 59.96118 | -32.47147 | 36285 ft | 454 kts | 233° |
| 2026-05-06 07:34 | 59.91915 | -32.56607 | 36285 ft | 454 kts | 233° |
| 2026-05-06 07:34 | 59.87713 | -32.66023 | 36287 ft | 455 kts | 233° |
| 2026-05-06 07:35 | 59.83499 | -32.75428 | 36286 ft | 455 kts | 232° |
| 2026-05-06 07:35 | 59.79304 | -32.84752 | 36288 ft | 455 kts | 232° |
| 2026-05-06 07:36 | 59.75067 | -32.94130 | 36287 ft | 456 kts | 232° |
| 2026-05-06 07:36 | 59.70822 | -33.03488 | 36282 ft | 456 kts | 232° |
| 2026-05-06 07:37 | 59.66599 | -33.12760 | 36284 ft | 456 kts | 232° |
| 2026-05-06 07:37 | 59.62325 | -33.22106 | 36293 ft | 457 kts | 231° |
| 2026-05-06 07:38 | 59.58075 | -33.31358 | 36283 ft | 457 kts | 231° |
| 2026-05-06 07:38 | 59.53796 | -33.40640 | 36285 ft | 457 kts | 231° |
| 2026-05-06 07:39 | 59.49505 | -33.49907 | 36277 ft | 457 kts | 231° |
| 2026-05-06 07:39 | 59.45213 | -33.59139 | 36282 ft | 458 kts | 231° |
| 2026-05-06 07:40 | 59.40922 | -33.68333 | 36281 ft | 458 kts | 231° |
| 2026-05-06 07:40 | 59.36599 | -33.77556 | 36278 ft | 458 kts | 231° |
| 2026-05-06 07:41 | 59.32276 | -33.86742 | 36278 ft | 459 kts | 231° |
| 2026-05-06 07:41 | 59.27940 | -33.95921 | 36274 ft | 459 kts | 230° |
| 2026-05-06 07:42 | 59.23613 | -34.05045 | 36269 ft | 459 kts | 230° |
| 2026-05-06 07:42 | 59.19257 | -34.14191 | 36274 ft | 460 kts | 230° |
| 2026-05-06 07:43 | 59.14889 | -34.23323 | 36272 ft | 461 kts | 230° |
| 2026-05-06 07:43 | 59.10503 | -34.32461 | 36269 ft | 461 kts | 229° |
| 2026-05-06 07:44 | 59.06108 | -34.41578 | 36264 ft | 463 kts | 229° |
| 2026-05-06 07:44 | 59.01722 | -34.50638 | 36259 ft | 463 kts | 229° |
| 2026-05-06 07:45 | 58.97297 | -34.59746 | 36260 ft | 464 kts | 229° |
| 2026-05-06 07:45 | 58.92859 | -34.68839 | 36252 ft | 465 kts | 228° |
| 2026-05-06 07:46 | 58.88413 | -34.77918 | 36251 ft | 465 kts | 228° |
| 2026-05-06 07:46 | 58.83952 | -34.86990 | 36253 ft | 466 kts | 227° |
| 2026-05-06 07:47 | 58.79476 | -34.96053 | 36245 ft | 467 kts | 227° |
| 2026-05-06 07:47 | 58.74987 | -35.05107 | 36242 ft | 467 kts | 227° |
| 2026-05-06 07:48 | 58.70488 | -35.14147 | 36244 ft | 468 kts | 227° |
| 2026-05-06 07:48 | 58.65972 | -35.23186 | 36239 ft | 469 kts | 226° |
| 2026-05-06 07:49 | 58.61480 | -35.32142 | 36235 ft | 469 kts | 226° |
| 2026-05-06 07:49 | 58.56937 | -35.41160 | 36232 ft | 470 kts | 226° |
| 2026-05-06 07:50 | 58.52378 | -35.50177 | 36226 ft | 471 kts | 225° |
| 2026-05-06 07:50 | 58.47803 | -35.59187 | 36228 ft | 472 kts | 225° |
| 2026-05-06 07:51 | 58.43209 | -35.68199 | 36220 ft | 473 kts | 225° |
| 2026-05-06 07:51 | 58.38607 | -35.77190 | 36214 ft | 474 kts | 225° |
| 2026-05-06 07:52 | 58.34016 | -35.86123 | 36210 ft | 475 kts | 225° |
| 2026-05-06 07:52 | 58.29382 | -35.95105 | 36209 ft | 476 kts | 224° |
| 2026-05-06 07:53 | 58.24728 | -36.04091 | 36202 ft | 477 kts | 224° |
| 2026-05-06 07:53 | 58.20067 | -36.13054 | 36200 ft | 477 kts | 224° |
| 2026-05-06 07:54 | 58.15387 | -36.22017 | 36193 ft | 477 kts | 224° |
| 2026-05-06 07:54 | 58.10712 | -36.30937 | 36190 ft | 478 kts | 224° |
| 2026-05-06 07:55 | 58.06023 | -36.39849 | 36187 ft | 478 kts | 223° |
| 2026-05-06 07:55 | 58.01351 | -36.48692 | 36182 ft | 478 kts | 223° |
| 2026-05-06 07:56 | 57.96634 | -36.57582 | 36176 ft | 479 kts | 223° |
| 2026-05-06 07:56 | 57.91905 | -36.66465 | 36171 ft | 480 kts | 223° |
| 2026-05-06 07:57 | 57.87170 | -36.75322 | 36168 ft | 480 kts | 223° |
| 2026-05-06 07:57 | 57.82460 | -36.84096 | 36163 ft | 479 kts | 222° |
| 2026-05-06 07:58 | 57.77722 | -36.92889 | 36165 ft | 480 kts | 222° |
| 2026-05-06 07:58 | 57.72974 | -37.01659 | 36166 ft | 479 kts | 222° |
| 2026-05-06 07:59 | 57.68224 | -37.10403 | 36162 ft | 479 kts | 222° |
| 2026-05-06 07:59 | 57.63469 | -37.19121 | 36154 ft | 479 kts | 222° |
| 2026-05-06 08:00 | 57.58717 | -37.27803 | 36149 ft | 478 kts | 222° |
| 2026-05-06 08:00 | 57.53957 | -37.36467 | 36145 ft | 478 kts | 222° |
| 2026-05-06 08:01 | 57.49195 | -37.45102 | 36155 ft | 478 kts | 222° |
| 2026-05-06 08:01 | 57.44424 | -37.53721 | 36147 ft | 479 kts | 222° |
| 2026-05-06 08:02 | 57.39643 | -37.62323 | 36143 ft | 479 kts | 222° |
| 2026-05-06 08:02 | 57.34855 | -37.70905 | 36139 ft | 479 kts | 222° |
| 2026-05-06 08:03 | 57.30061 | -37.79465 | 36138 ft | 479 kts | 221° |
| 2026-05-06 08:03 | 57.25261 | -37.88002 | 36136 ft | 479 kts | 221° |
| 2026-05-06 08:04 | 57.20465 | -37.96501 | 36138 ft | 478 kts | 221° |
| 2026-05-06 08:04 | 57.15660 | -38.04980 | 36138 ft | 478 kts | 221° |
| 2026-05-06 08:05 | 57.10854 | -38.13432 | 36137 ft | 478 kts | 221° |
| 2026-05-06 08:05 | 57.06042 | -38.21863 | 36132 ft | 477 kts | 221° |
| 2026-05-06 08:06 | 57.01233 | -38.30256 | 36130 ft | 477 kts | 221° |
| 2026-05-06 08:06 | 56.96417 | -38.38630 | 36131 ft | 477 kts | 221° |
| 2026-05-06 08:07 | 56.91601 | -38.46973 | 36129 ft | 476 kts | 221° |
| 2026-05-06 08:07 | 56.86815 | -38.55232 | 36128 ft | 476 kts | 221° |
| 2026-05-06 08:08 | 56.81992 | -38.63525 | 36124 ft | 476 kts | 221° |
| 2026-05-06 08:08 | 56.77170 | -38.71787 | 36124 ft | 475 kts | 221° |
| 2026-05-06 08:09 | 56.72345 | -38.80023 | 36122 ft | 475 kts | 221° |
| 2026-05-06 08:09 | 56.67521 | -38.88226 | 36123 ft | 475 kts | 221° |
| 2026-05-06 08:10 | 56.62692 | -38.96408 | 36121 ft | 474 kts | 221° |
| 2026-05-06 08:10 | 56.58679 | -39.03185 | 36111 ft | 474 kts | 221° |
| 2026-05-06 08:11 | 56.53845 | -39.11319 | 36117 ft | 474 kts | 221° |
| 2026-05-06 08:11 | 56.49006 | -39.19434 | 36114 ft | 474 kts | 221° |
| 2026-05-06 08:12 | 56.44156 | -39.27536 | 36112 ft | 474 kts | 221° |
| 2026-05-06 08:12 | 56.39308 | -39.35606 | 36108 ft | 474 kts | 221° |
| 2026-05-06 08:13 | 56.34459 | -39.43650 | 36112 ft | 474 kts | 221° |
| 2026-05-06 08:13 | 56.29598 | -39.51683 | 36109 ft | 474 kts | 222° |
| 2026-05-06 08:14 | 56.24739 | -39.59685 | 36113 ft | 473 kts | 222° |
| 2026-05-06 08:14 | 56.19880 | -39.67666 | 36107 ft | 473 kts | 222° |
| 2026-05-06 08:15 | 56.15020 | -39.75628 | 36106 ft | 473 kts | 222° |
| 2026-05-06 08:15 | 56.10162 | -39.83562 | 36109 ft | 473 kts | 222° |
| 2026-05-06 08:16 | 56.05296 | -39.91479 | 36108 ft | 472 kts | 222° |
| 2026-05-06 08:16 | 56.00487 | -39.99469 | 36102 ft | 471 kts | 229° |
| 2026-05-06 08:17 | 55.96871 | -40.09214 | 36106 ft | 472 kts | 240° |
| 2026-05-06 08:17 | 55.93629 | -40.19312 | 36105 ft | 471 kts | 240° |
| 2026-05-06 08:18 | 55.90349 | -40.29427 | 36102 ft | 471 kts | 239° |
| 2026-05-06 08:18 | 55.87046 | -40.39513 | 36102 ft | 471 kts | 239° |
| 2026-05-06 08:19 | 55.83734 | -40.49569 | 36101 ft | 471 kts | 239° |
| 2026-05-06 08:19 | 55.80415 | -40.59606 | 36099 ft | 470 kts | 239° |
| 2026-05-06 08:20 | 55.77086 | -40.69613 | 36099 ft | 470 kts | 239° |
| 2026-05-06 08:20 | 55.73746 | -40.79600 | 36096 ft | 470 kts | 239° |
| 2026-05-06 08:21 | 55.70402 | -40.89557 | 36094 ft | 470 kts | 239° |
| 2026-05-06 08:21 | 55.67050 | -40.99495 | 36095 ft | 470 kts | 239° |
| 2026-05-06 08:22 | 55.63687 | -41.09425 | 36091 ft | 470 kts | 239° |
| 2026-05-06 08:22 | 55.60320 | -41.19326 | 36091 ft | 470 kts | 239° |
| 2026-05-06 08:23 | 55.56946 | -41.29207 | 36088 ft | 469 kts | 239° |
| 2026-05-06 08:23 | 55.53572 | -41.39050 | 36091 ft | 470 kts | 239° |
| 2026-05-06 08:24 | 55.50175 | -41.48916 | 36093 ft | 469 kts | 239° |
| 2026-05-06 08:24 | 55.46776 | -41.58752 | 36086 ft | 470 kts | 239° |
| 2026-05-06 08:25 | 55.43369 | -41.68569 | 36090 ft | 470 kts | 239° |
| 2026-05-06 08:25 | 55.39953 | -41.78372 | 36086 ft | 469 kts | 239° |
| 2026-05-06 08:26 | 55.36532 | -41.88153 | 36087 ft | 469 kts | 239° |
| 2026-05-06 08:26 | 55.33106 | -41.97906 | 36088 ft | 469 kts | 239° |
| 2026-05-06 08:27 | 55.29679 | -42.07625 | 36088 ft | 468 kts | 239° |
| 2026-05-06 08:27 | 55.26241 | -42.17334 | 36086 ft | 468 kts | 239° |
| 2026-05-06 08:28 | 55.22801 | -42.27011 | 36083 ft | 468 kts | 239° |
| 2026-05-06 08:28 | 55.19348 | -42.36687 | 36082 ft | 467 kts | 239° |
| 2026-05-06 08:29 | 55.15898 | -42.46317 | 36082 ft | 467 kts | 239° |
| 2026-05-06 08:29 | 55.12437 | -42.55939 | 36080 ft | 467 kts | 239° |
| 2026-05-06 08:30 | 55.08972 | -42.65534 | 36077 ft | 467 kts | 239° |
| 2026-05-06 08:30 | 55.05502 | -42.75107 | 36079 ft | 466 kts | 239° |
| 2026-05-06 08:31 | 55.02033 | -42.84638 | 36079 ft | 466 kts | 239° |
| 2026-05-06 08:31 | 54.98547 | -42.94181 | 36079 ft | 466 kts | 239° |
| 2026-05-06 08:32 | 54.95077 | -43.03641 | 36081 ft | 465 kts | 239° |
| 2026-05-06 08:32 | 54.91583 | -43.13132 | 36077 ft | 465 kts | 239° |
| 2026-05-06 08:33 | 54.88089 | -43.22584 | 36074 ft | 464 kts | 239° |
| 2026-05-06 08:33 | 54.84614 | -43.31950 | 36072 ft | 464 kts | 239° |
| 2026-05-06 08:34 | 54.79461 | -43.45775 | 36073 ft | 463 kts | 239° |
| 2026-05-06 08:35 | 54.75958 | -43.55130 | 36077 ft | 463 kts | 239° |
| 2026-05-06 08:35 | 54.72449 | -43.64463 | 36073 ft | 462 kts | 239° |
| 2026-05-06 08:36 | 54.68935 | -43.73775 | 36071 ft | 462 kts | 239° |
| 2026-05-06 08:36 | 54.65419 | -43.83057 | 36069 ft | 461 kts | 239° |
| 2026-05-06 08:37 | 54.61900 | -43.92315 | 36070 ft | 461 kts | 239° |
| 2026-05-06 08:37 | 54.58376 | -44.01548 | 36069 ft | 461 kts | 239° |
| 2026-05-06 08:38 | 54.54851 | -44.10752 | 36065 ft | 460 kts | 239° |
| 2026-05-06 08:38 | 54.51345 | -44.19871 | 36066 ft | 460 kts | 239° |
| 2026-05-06 08:39 | 54.47809 | -44.29036 | 36067 ft | 459 kts | 239° |
| 2026-05-06 08:39 | 54.44270 | -44.38174 | 36065 ft | 459 kts | 239° |
| 2026-05-06 08:40 | 54.40721 | -44.47304 | 36068 ft | 458 kts | 239° |
| 2026-05-06 08:40 | 54.37179 | -44.56383 | 36061 ft | 458 kts | 239° |
| 2026-05-06 08:41 | 54.33626 | -44.65457 | 36064 ft | 457 kts | 239° |
| 2026-05-06 08:41 | 54.30092 | -44.74448 | 36064 ft | 457 kts | 239° |
| 2026-05-06 08:42 | 54.26532 | -44.83474 | 36064 ft | 456 kts | 239° |
| 2026-05-06 08:42 | 54.22966 | -44.92482 | 36059 ft | 456 kts | 239° |
| 2026-05-06 08:43 | 54.19429 | -45.01385 | 36066 ft | 455 kts | 239° |
| 2026-05-06 08:43 | 54.15858 | -45.10342 | 36066 ft | 455 kts | 240° |
| 2026-05-06 08:44 | 54.12283 | -45.19274 | 36059 ft | 454 kts | 240° |
| 2026-05-06 08:44 | 54.08741 | -45.28097 | 36060 ft | 454 kts | 240° |
| 2026-05-06 08:45 | 54.05175 | -45.36944 | 36059 ft | 453 kts | 240° |
| 2026-05-06 08:45 | 54.01602 | -45.45781 | 36060 ft | 452 kts | 240° |
| 2026-05-06 08:46 | 53.98035 | -45.54568 | 36061 ft | 452 kts | 240° |
| 2026-05-06 08:46 | 53.94459 | -45.63349 | 36061 ft | 451 kts | 240° |
| 2026-05-06 08:47 | 53.90888 | -45.72086 | 36057 ft | 450 kts | 240° |
| 2026-05-06 08:47 | 53.87338 | -45.80743 | 36055 ft | 449 kts | 240° |
| 2026-05-06 08:48 | 53.83775 | -45.89401 | 36054 ft | 447 kts | 240° |
| 2026-05-06 08:48 | 53.80211 | -45.98030 | 36057 ft | 446 kts | 240° |
| 2026-05-06 08:49 | 53.78432 | -46.02329 | 36059 ft | 446 kts | 240° |